createdAt,value
2023-02-23T00:06:13.734Z,11.92
2023-02-23T00:21:16.642Z,11.91
2023-02-23T00:36:18.423Z,11.90
2023-02-23T00:51:20.124Z,11.90
2023-02-23T01:06:22.147Z,11.87
2023-02-23T01:21:24.943Z,11.85
2023-02-23T01:36:29.003Z,11.84
2023-02-23T01:51:39.858Z,11.81
2023-02-23T02:06:41.484Z,11.81
2023-02-23T02:21:51.879Z,11.81
2023-02-23T02:36:53.363Z,11.80
2023-02-23T02:52:13.678Z,11.82
2023-02-23T03:07:40.160Z,11.79
2023-02-23T03:23:11.599Z,11.76
2023-02-23T03:38:34.634Z,11.73
2023-02-23T03:54:00.579Z,11.73
2023-02-23T04:09:21.420Z,11.75
2023-02-23T04:24:23.219Z,11.73
2023-02-23T04:39:24.804Z,11.72
2023-02-23T04:54:26.662Z,11.71
2023-02-23T05:09:28.166Z,11.71
2023-02-23T05:24:29.789Z,11.74
2023-02-23T05:39:31.533Z,11.73
2023-02-23T05:54:33.010Z,11.68
2023-02-23T06:09:34.721Z,11.74
2023-02-23T06:24:36.301Z,11.80
2023-02-23T06:39:37.854Z,11.86
2023-02-23T06:54:40.295Z,11.95
2023-02-23T07:09:42.972Z,11.99
2023-02-23T07:24:44.487Z,12.03
2023-02-23T07:39:46.166Z,12.02
2023-02-23T07:54:47.789Z,12.06
2023-02-23T08:09:49.814Z,12.12
2023-02-23T08:24:51.411Z,12.14
2023-02-23T08:39:52.918Z,12.22
2023-02-23T08:54:55.746Z,12.25
2023-02-23T09:09:58.140Z,12.29
2023-02-23T09:24:59.725Z,12.32
2023-02-23T09:40:01.209Z,12.33
2023-02-23T09:55:02.735Z,12.37
2023-02-23T10:10:19.903Z,12.39
2023-02-23T10:25:26.111Z,12.44
2023-02-23T10:40:28.816Z,12.48
2023-02-23T10:55:31.745Z,12.51
2023-02-23T11:10:34.204Z,12.54
2023-02-23T11:25:35.846Z,12.59
2023-02-23T11:40:37.504Z,12.63
2023-02-23T11:55:39.589Z,12.67
2023-02-23T12:10:42.525Z,12.74
2023-02-23T12:25:57.093Z,12.73
2023-02-23T12:41:13.021Z,12.77
2023-02-23T12:56:14.701Z,12.77
2023-02-23T13:11:41.060Z,12.82
2023-02-23T13:26:58.157Z,12.84
2023-02-23T13:42:09.830Z,12.82
2023-02-23T13:57:16.778Z,12.85
2023-02-23T14:12:24.052Z,12.85
2023-02-23T14:27:42.631Z,12.85
2023-02-23T14:42:49.679Z,12.89
2023-02-23T14:57:52.677Z,12.82
2023-02-23T15:12:54.250Z,12.73
2023-02-23T15:27:56.148Z,12.71
2023-02-23T15:43:00.780Z,12.65
2023-02-23T15:58:10.426Z,12.63
2023-02-23T16:13:13.616Z,12.63
2023-02-23T16:28:17.566Z,12.62
2023-02-23T16:43:19.187Z,12.59
2023-02-23T16:58:22.703Z,12.61
2023-02-23T17:13:25.274Z,12.58
2023-02-23T17:28:26.843Z,12.57
2023-02-23T17:43:28.618Z,12.51
2023-02-23T17:58:30.653Z,12.49
2023-02-23T18:13:35.712Z,12.50
2023-02-23T18:28:38.734Z,12.46
2023-02-23T18:43:40.673Z,12.43
2023-02-23T18:58:44.656Z,12.41
2023-02-23T19:13:46.113Z,12.40
2023-02-23T19:28:48.244Z,12.38
2023-02-23T19:43:49.944Z,12.40
2023-02-23T19:58:52.071Z,12.39
2023-02-23T20:13:53.999Z,12.37
2023-02-23T20:28:56.365Z,12.40
2023-02-23T20:43:57.940Z,12.33
2023-02-23T20:58:59.499Z,12.35
2023-02-23T21:14:01.112Z,12.31
2023-02-23T21:29:02.917Z,12.30
2023-02-23T21:44:05.644Z,12.33
2023-02-23T21:59:10.887Z,12.27
2023-02-23T22:14:12.797Z,12.27
2023-02-23T22:29:14.322Z,12.27
2023-02-23T22:44:16.964Z,12.27
2023-02-23T22:59:20.397Z,12.25
2023-02-23T23:14:23.268Z,12.25
2023-02-23T23:29:25.921Z,12.23
2023-02-23T23:44:29.630Z,12.21
2023-02-23T23:59:32.046Z,12.22
